Time;durP1;ratioP1;P1;durP2;ratioP2;P2;SDS_P1;SDS_P2;PMS_P1;PMS_P2;Temp;Humidity;BMP_temperature;BMP_pressure;BME280_temperature;BME280_humidity;BME280_pressure;Samples;Min_cycle;Max_cycle;Signal;HPM_P1;HPM_P2
2023/11/18 00:03:30;;;;;;;7.78;4.00;;;15.50;71.90;;;;;;10408681;28;20017;-53
2023/11/18 00:08:31;;;;;;;6.05;4.13;;;15.40;71.80;;;;;;10408460;28;20081;-52
2023/11/18 00:13:31;;;;;;;5.32;4.00;;;15.50;72.00;;;;;;10408186;28;20040;-53
2023/11/18 00:18:32;;;;;;;7.47;4.15;;;15.40;72.00;;;;;;10408486;28;20351;-50
2023/11/18 00:23:34;;;;;;;5.22;3.70;;;15.40;72.00;;;;;;10408150;28;20033;-51
2023/11/18 00:28:35;;;;;;;5.20;4.10;;;15.40;72.00;;;;;;10409135;28;20529;-51
2023/11/18 00:33:35;;;;;;;6.13;4.50;;;15.40;72.00;;;;;;10408020;28;20049;-52
2023/11/18 00:38:36;;;;;;;6.22;4.20;;;15.40;72.10;;;;;;10408262;28;20030;-51
2023/11/18 00:43:37;;;;;;;5.55;4.03;;;15.40;72.10;;;;;;10408075;28;20038;-51
2023/11/18 00:48:38;;;;;;;6.40;4.47;;;15.40;72.00;;;;;;10408019;28;20037;-52
2023/11/18 00:53:39;;;;;;;5.82;4.22;;;15.40;72.00;;;;;;10407765;28;20091;-51
2023/11/18 00:58:40;;;;;;;6.25;4.35;;;15.40;72.30;;;;;;10408025;28;20029;-51
2023/11/18 01:03:40;;;;;;;6.97;4.40;;;15.30;72.20;;;;;;10407931;28;20022;-53
2023/11/18 01:08:47;;;;;;;5.40;4.35;;;15.30;72.20;;;;;;10407760;28;20037;-51
2023/11/18 01:13:51;;;;;;;5.25;3.88;;;15.30;72.20;;;;;;10407495;28;20022;-52
2023/11/18 01:18:52;;;;;;;4.80;3.72;;;15.30;72.20;;;;;;10407731;28;20038;-52
2023/11/18 01:23:52;;;;;;;5.45;3.88;;;15.30;72.30;;;;;;10445679;28;20029;-50
2023/11/18 01:28:55;;;;;;;5.38;3.95;;;15.20;72.30;;;;;;10417720;28;20028;-52
2023/11/18 01:33:56;;;;;;;6.20;4.10;;;15.30;72.30;;;;;;10423326;28;20026;-50
2023/11/18 01:38:57;;;;;;;5.05;4.05;;;15.30;72.40;;;;;;10414465;28;20473;-51
2023/11/18 01:43:58;;;;;;;6.03;4.07;;;15.20;72.20;;;;;;10413841;28;20033;-47
2023/11/18 01:48:59;;;;;;;5.88;4.10;;;15.20;72.30;;;;;;10413498;28;20034;-47
2023/11/18 01:54:00;;;;;;;5.65;3.90;;;15.20;72.40;;;;;;10412592;28;20037;-50
2023/11/18 01:59:04;;;;;;;5.45;3.78;;;15.20;72.30;;;;;;10445487;28;20036;-50
2023/11/18 02:04:07;;;;;;;5.80;4.00;;;15.20;72.40;;;;;;10413081;28;20032;-50
2023/11/18 02:09:08;;;;;;;5.72;4.13;;;15.20;72.50;;;;;;10413488;28;20060;-52
2023/11/18 02:14:16;;;;;;;4.85;3.85;;;15.20;72.50;;;;;;10413039;28;20113;-52
2023/11/18 02:19:21;;;;;;;7.07;4.55;;;15.20;72.50;;;;;;10413162;28;20112;-52
2023/11/18 02:24:40;;;;;;;5.97;4.38;;;15.10;72.50;;;;;;10412497;28;20475;-51
2023/11/18 02:29:45;;;;;;;4.78;3.92;;;15.10;72.40;;;;;;10422399;28;20531;-53
2023/11/18 02:35:29;;;;;;;4.82;4.20;;;15.10;72.50;;;;;;10414109;28;20029;-52
2023/11/18 02:40:39;;;;;;;6.22;4.00;;;15.10;72.50;;;;;;10410254;28;20823;-51
2023/11/18 02:45:41;;;;;;;5.88;3.90;;;15.10;72.50;;;;;;10410696;28;20033;-52
2023/11/18 02:50:42;;;;;;;4.90;3.83;;;15.10;72.50;;;;;;10412134;28;20025;-50
2023/11/18 02:55:43;;;;;;;5.07;4.22;;;15.10;72.50;;;;;;10411263;28;20033;-51
2023/11/18 03:00:44;;;;;;;5.05;3.97;;;15.10;72.50;;;;;;10411523;28;20846;-52
2023/11/18 03:05:45;;;;;;;5.85;4.20;;;15.10;73.10;;;;;;10410931;28;20033;-52
2023/11/18 03:10:46;;;;;;;5.20;3.88;;;15.10;72.60;;;;;;10411367;28;20469;-51
2023/11/18 03:15:48;;;;;;;5.25;3.90;;;15.10;72.50;;;;;;10410415;28;20075;-52
2023/11/18 03:20:49;;;;;;;5.32;4.47;;;15.10;72.50;;;;;;10411294;28;20021;-48
2023/11/18 03:25:51;;;;;;;7.57;4.95;;;15.00;72.50;;;;;;10409724;28;20048;-48
2023/11/18 03:30:52;;;;;;;5.40;4.07;;;15.00;72.50;;;;;;10409750;28;20116;-50
2023/11/18 03:35:55;;;;;;;6.78;3.80;;;15.00;72.50;;;;;;10409273;28;20038;-49
2023/11/18 03:40:56;;;;;;;7.20;4.78;;;15.00;72.60;;;;;;10409715;28;20037;-50
2023/11/18 03:45:57;;;;;;;5.82;4.38;;;15.00;72.60;;;;;;10408901;28;20040;-50
2023/11/18 03:50:58;;;;;;;5.18;3.88;;;15.00;72.60;;;;;;10409489;28;20047;-50
2023/11/18 03:55:58;;;;;;;5.85;4.32;;;15.00;72.60;;;;;;10408762;28;20499;-52
2023/11/18 04:00:59;;;;;;;6.28;3.97;;;15.00;72.70;;;;;;10409204;28;20404;-53
2023/11/18 04:06:00;;;;;;;5.80;4.10;;;14.90;72.60;;;;;;10408359;28;20428;-50
2023/11/18 04:11:02;;;;;;;5.50;4.13;;;15.00;72.60;;;;;;10408793;28;20033;-51
2023/11/18 04:16:03;;;;;;;6.22;4.38;;;14.90;72.60;;;;;;10408473;28;20115;-50
2023/11/18 04:21:04;;;;;;;5.78;4.18;;;14.90;72.60;;;;;;10408455;28;20030;-49
2023/11/18 04:26:07;;;;;;;5.85;4.20;;;14.90;72.60;;;;;;10408464;28;20118;-50
2023/11/18 04:31:07;;;;;;;5.47;4.32;;;14.90;72.60;;;;;;10408878;28;20392;-50
2023/11/18 04:36:10;;;;;;;6.97;5.35;;;14.90;72.70;;;;;;10407808;28;20095;-51
2023/11/18 04:41:11;;;;;;;6.47;4.70;;;14.90;72.70;;;;;;10408235;28;20022;-51
2023/11/18 04:46:11;;;;;;;5.50;4.47;;;14.90;72.60;;;;;;10407664;28;20036;-52
2023/11/18 04:51:12;;;;;;;5.10;4.00;;;14.90;72.60;;;;;;10406711;28;20036;-52
2023/11/18 04:56:16;;;;;;;6.40;4.72;;;14.90;72.70;;;;;;10410291;28;20683;-51
2023/11/18 05:01:18;;;;;;;5.47;4.20;;;14.90;72.60;;;;;;10415947;28;20029;-51
2023/11/18 05:06:20;;;;;;;5.47;4.38;;;14.90;72.60;;;;;;10415507;28;20497;-51
2023/11/18 05:11:20;;;;;;;5.30;4.53;;;14.80;72.70;;;;;;10405871;28;20030;-52
2023/11/18 05:16:22;;;;;;;7.72;5.45;;;14.80;72.70;;;;;;10414866;28;20643;-52
2023/11/18 05:21:23;;;;;;;5.80;4.15;;;14.90;72.70;;;;;;10415157;28;20033;-47
2023/11/18 05:26:23;;;;;;;5.85;4.28;;;14.80;72.70;;;;;;10414484;28;20041;-50
2023/11/18 05:31:24;;;;;;;5.93;4.10;;;14.80;72.80;;;;;;10414973;28;20516;-52
2023/11/18 05:36:30;;;;;;;6.22;4.00;;;14.80;72.70;;;;;;10413965;28;20029;-52
2023/11/18 05:41:31;;;;;;;6.28;4.78;;;14.80;72.60;;;;;;10414603;28;20032;-53
2023/11/18 05:46:32;;;;;;;6.05;4.40;;;14.90;72.50;;;;;;10412138;28;20502;-51
2023/11/18 05:51:33;;;;;;;5.53;4.10;;;15.10;71.90;;;;;;10428238;28;20041;-51
2023/11/18 05:56:34;;;;;;;5.38;3.75;;;15.30;71.00;;;;;;10427173;28;20551;-51
2023/11/18 06:01:34;;;;;;;7.22;4.20;;;15.60;70.30;;;;;;10422391;28;20488;-50
2023/11/18 06:06:37;;;;;;;5.82;3.90;;;15.80;69.60;;;;;;10407896;28;20037;-50
2023/11/18 06:11:41;;;;;;;5.32;3.85;;;16.00;68.90;;;;;;10411076;28;20084;-50
2023/11/18 06:16:41;;;;;;;5.03;3.53;;;16.20;68.30;;;;;;10407871;28;20421;-49
2023/11/18 06:21:42;;;;;;;5.82;3.78;;;16.40;67.90;;;;;;10411373;28;20064;-49
2023/11/18 06:26:43;;;;;;;5.57;3.38;;;16.50;68.50;;;;;;10409551;28;20025;-49
2023/11/18 06:31:44;;;;;;;10.60;4.65;;;16.60;68.50;;;;;;10422962;28;20515;-52
2023/11/18 06:36:44;;;;;;;8.65;4.07;;;16.70;69.30;;;;;;10411970;28;20030;-50
2023/11/18 06:41:50;;;;;;;17.80;4.75;;;16.80;68.80;;;;;;10418828;28;20057;-53
2023/11/18 06:46:51;;;;;;;11.32;3.92;;;16.80;68.70;;;;;;10412002;28;20116;-52
2023/11/18 06:51:52;;;;;;;10.80;4.82;;;16.90;69.10;;;;;;10412948;28;20037;-51
2023/11/18 06:56:53;;;;;;;12.15;5.13;;;17.00;68.20;;;;;;10410867;28;20091;-50
2023/11/18 07:01:54;;;;;;;14.60;5.40;;;17.10;68.00;;;;;;10402595;28;20874;-50
2023/11/18 07:06:55;;;;;;;13.02;5.13;;;17.00;68.10;;;;;;10405582;28;20049;-52
2023/11/18 07:11:56;;;;;;;9.68;4.25;;;17.00;67.80;;;;;;10412888;28;20025;-52
2023/11/18 07:16:56;;;;;;;15.95;5.55;;;17.10;67.80;;;;;;10408207;28;20671;-50
2023/11/18 07:21:57;;;;;;;11.90;4.90;;;17.10;67.80;;;;;;10409069;28;20444;-49
2023/11/18 07:26:59;;;;;;;13.45;4.82;;;17.20;67.50;;;;;;10409356;28;20041;-52
2023/11/18 07:32:05;;;;;;;9.88;4.93;;;17.40;67.20;;;;;;10409345;28;20627;-52
2023/11/18 07:37:07;;;;;;;24.00;6.40;;;17.50;67.10;;;;;;10409498;28;20547;-52
2023/11/18 07:42:08;;;;;;;13.25;5.18;;;17.60;67.10;;;;;;10408923;28;20412;-51
2023/11/18 07:47:09;;;;;;;17.55;5.45;;;17.60;67.30;;;;;;10409321;28;20033;-51
2023/11/18 07:52:10;;;;;;;19.63;5.40;;;17.60;67.00;;;;;;10408110;28;20059;-53
2023/11/18 07:57:11;;;;;;;12.45;4.60;;;17.70;66.90;;;;;;10407976;28;20045;-51
2023/11/18 08:02:14;;;;;;;16.90;5.70;;;17.70;66.80;;;;;;10395207;28;20032;-50
2023/11/18 08:07:15;;;;;;;13.05;5.05;;;17.70;66.30;;;;;;10414849;28;20041;-51
2023/11/18 08:12:15;;;;;;;10.18;5.25;;;17.70;66.20;;;;;;10397239;28;20064;-51
2023/11/18 08:17:16;;;;;;;10.57;4.35;;;17.60;66.40;;;;;;10406049;28;20028;-51
2023/11/18 08:22:18;;;;;;;10.05;4.18;;;17.70;66.00;;;;;;10406809;28;20041;-48
2023/11/18 08:27:20;;;;;;;9.93;4.05;;;17.70;65.90;;;;;;10403956;28;20029;-54
2023/11/18 08:32:23;;;;;;;9.95;3.83;;;17.70;65.90;;;;;;10408918;28;20050;-52
2023/11/18 08:37:24;;;;;;;10.02;4.03;;;17.70;65.90;;;;;;10431390;28;20037;-52
2023/11/18 08:42:24;;;;;;;9.85;4.00;;;17.70;65.80;;;;;;10423591;28;20025;-53
2023/11/18 08:47:26;;;;;;;8.73;3.90;;;17.70;65.80;;;;;;10420416;28;20086;-52
2023/11/18 08:52:27;;;;;;;7.57;3.95;;;17.80;65.80;;;;;;10417239;28;20041;-53
2023/11/18 08:57:34;;;;;;;5.85;3.40;;;17.80;65.80;;;;;;10417506;28;20026;-50
2023/11/18 09:02:37;;;;;;;6.72;3.78;;;17.60;66.30;;;;;;10429324;28;20025;-50
2023/11/18 09:07:38;;;;;;;5.40;3.63;;;17.60;66.40;;;;;;10427270;28;20035;-50
2023/11/18 09:12:41;;;;;;;6.25;4.15;;;17.60;66.30;;;;;;10420202;28;20464;-50
2023/11/18 09:17:44;;;;;;;7.93;4.38;;;17.70;66.00;;;;;;10424377;28;20041;-50
2023/11/18 09:22:45;;;;;;;11.43;4.75;;;17.80;66.00;;;;;;10429153;28;20033;-52
2023/11/18 09:27:46;;;;;;;8.05;4.63;;;17.90;66.10;;;;;;10428896;28;20560;-50
2023/11/18 09:32:47;;;;;;;8.35;3.90;;;17.90;67.90;;;;;;10427226;28;20057;-49
2023/11/18 09:37:48;;;;;;;20.33;6.03;;;18.10;67.10;;;;;;10414339;28;20481;-52
2023/11/18 09:42:50;;;;;;;18.15;5.75;;;18.00;67.10;;;;;;10425792;28;20029;-52
2023/11/18 09:47:53;;;;;;;26.00;6.80;;;17.90;67.20;;;;;;10419054;28;20443;-52
2023/11/18 09:52:58;;;;;;;25.67;7.07;;;17.70;67.90;;;;;;10412479;28;20037;-53
2023/11/18 09:58:08;;;;;;;14.55;5.28;;;17.80;68.10;;;;;;10413481;28;20035;-52
2023/11/18 10:03:12;;;;;;;18.70;5.30;;;17.90;68.30;;;;;;10413791;28;20026;-53
2023/11/18 10:08:16;;;;;;;20.60;5.32;;;17.90;68.20;;;;;;10412452;28;20045;-53
2023/11/18 10:13:22;;;;;;;22.63;6.60;;;17.80;68.30;;;;;;10413069;28;20116;-53
2023/11/18 10:18:23;;;;;;;17.00;5.60;;;17.70;68.50;;;;;;10412582;28;20028;-53
2023/11/18 10:23:25;;;;;;;19.80;7.03;;;17.60;68.60;;;;;;10410763;28;20060;-54
2023/11/18 10:28:29;;;;;;;16.30;5.30;;;17.60;69.00;;;;;;10411878;28;20469;-52
2023/11/18 10:33:41;;;;;;;14.65;5.25;;;17.60;69.00;;;;;;10411935;28;20068;-53
2023/11/18 10:38:49;;;;;;;20.15;6.38;;;17.40;69.10;;;;;;10411448;28;20041;-52
2023/11/18 10:44:09;;;;;;;14.50;5.10;;;17.40;68.50;;;;;;10412028;28;20488;-53
2023/11/18 10:49:10;;;;;;;;;;;17.40;68.30;;;;;;10411556;28;20029;-52
2023/11/18 10:54:17;;;;;;;22.60;5.95;;;17.40;68.60;;;;;;10439189;28;19913;-56
2023/11/18 10:59:18;;;;;;;19.23;5.25;;;17.30;70.40;;;;;;10409406;28;20087;-51
2023/11/18 11:04:20;;;;;;;16.67;5.63;;;17.40;71.10;;;;;;10409593;28;20459;-53
2023/11/18 11:09:35;;;;;;;16.85;5.05;;;17.30;71.80;;;;;;10407399;28;20068;-52
2023/11/18 11:15:04;;;;;;;17.02;5.35;;;17.30;73.80;;;;;;10410918;28;20029;-54
2023/11/18 11:20:17;;;;;;;15.73;5.60;;;17.40;74.70;;;;;;10405285;28;20052;-53
2023/11/18 11:25:34;;;;;;;13.15;5.00;;;17.30;75.00;;;;;;10399461;28;20507;-54
2023/11/18 11:30:45;;;;;;;16.08;5.75;;;17.30;75.00;;;;;;10400832;28;20050;-54
2023/11/18 11:35:55;;;;;;;15.98;4.88;;;17.20;75.40;;;;;;10405213;28;20064;-54
2023/11/18 11:41:01;;;;;;;14.65;4.45;;;17.10;75.00;;;;;;10405973;28;20048;-52
2023/11/18 11:46:10;;;;;;;12.10;5.10;;;17.10;74.90;;;;;;10409056;28;20664;-52
2023/11/18 11:51:29;;;;;;;13.32;4.65;;;17.00;75.20;;;;;;10408635;28;20025;-50
2023/11/18 11:56:46;;;;;;;12.05;4.50;;;17.10;74.80;;;;;;10397143;28;20116;-52
2023/11/18 12:01:52;;;;;;;9.45;4.38;;;17.10;74.50;;;;;;10403465;28;20499;-53
2023/11/18 12:06:53;;;;;;;9.88;5.15;;;17.10;74.50;;;;;;10407441;28;20040;-52
2023/11/18 12:11:55;;;;;;;11.63;4.05;;;17.00;75.10;;;;;;10404608;28;20111;-51
2023/11/18 12:17:07;;;;;;;9.35;3.38;;;17.00;74.60;;;;;;10408881;28;20052;-51
2023/11/18 12:22:12;;;;;;;9.57;4.93;;;17.20;74.70;;;;;;10380433;28;20029;-53
2023/11/18 12:27:13;;;;;;;9.63;4.22;;;17.20;75.50;;;;;;10407943;28;20073;-53
2023/11/18 12:32:55;;;;;;;14.38;4.30;;;17.50;73.70;;;;;;10408463;28;20037;-53
2023/11/18 12:38:45;;;;;;;7.15;3.42;;;17.70;73.20;;;;;;10403704;28;20405;-52
2023/11/18 12:44:02;;;;;;;9.30;3.95;;;17.90;73.00;;;;;;10403103;28;20087;-54
2023/11/18 12:49:04;;;;;;;8.20;3.22;;;17.90;72.50;;;;;;10382619;28;20041;-52
2023/11/18 12:54:06;;;;;;;10.30;3.50;;;17.90;72.40;;;;;;10384933;28;20026;-51
2023/11/18 12:59:09;;;;;;;13.10;4.13;;;17.90;72.00;;;;;;10387672;28;20091;-53
2023/11/18 13:04:10;;;;;;;7.57;3.05;;;18.00;71.30;;;;;;10407493;28;20480;-51
2023/11/18 13:09:11;;;;;;;8.80;3.28;;;18.10;70.80;;;;;;10393420;28;20034;-52
2023/11/18 13:14:12;;;;;;;8.15;2.55;;;18.10;70.70;;;;;;10388346;28;20554;-49
2023/11/18 13:19:27;;;;;;;7.32;2.90;;;18.10;71.10;;;;;;10401177;28;20563;-51
2023/11/18 13:24:29;;;;;;;6.57;3.20;;;18.10;71.40;;;;;;10401627;28;20075;-51
2023/11/18 13:29:39;;;;;;;8.27;3.35;;;18.20;71.30;;;;;;10406499;28;20406;-52
2023/11/18 13:34:41;;;;;;;10.88;4.05;;;18.20;71.50;;;;;;10408229;28;20551;-52
2023/11/18 13:39:47;;;;;;;44.47;5.07;;;18.20;71.60;;;;;;10412638;28;20054;-53
2023/11/18 13:44:48;;;;;;;24.33;4.38;;;18.20;71.40;;;;;;10446240;28;20524;-52
2023/11/18 13:49:54;;;;;;;20.13;3.28;;;18.20;71.50;;;;;;10413384;28;20034;-52
2023/11/18 13:54:59;;;;;;;13.52;3.13;;;18.20;71.60;;;;;;10413067;28;20067;-49
2023/11/18 14:00:00;;;;;;;14.02;2.95;;;18.20;71.70;;;;;;10405234;28;20684;-54
2023/11/18 14:05:00;;;;;;;9.48;2.97;;;18.20;72.60;;;;;;10380285;28;20050;-50
2023/11/18 14:10:01;;;;;;;8.07;2.17;;;18.10;72.80;;;;;;10408934;28;20025;-51
2023/11/18 14:15:03;;;;;;;12.30;2.83;;;18.00;72.70;;;;;;10412639;28;20033;-52
2023/11/18 14:20:04;;;;;;;14.23;3.33;;;17.90;73.40;;;;;;10411841;28;20033;-49
2023/11/18 14:25:06;;;;;;;7.85;2.75;;;17.90;73.40;;;;;;10412375;28;20060;-52
2023/11/18 14:30:09;;;;;;;6.32;2.45;;;18.00;72.80;;;;;;10412600;28;20045;-53
2023/11/18 14:35:11;;;;;;;8.32;2.75;;;18.10;72.20;;;;;;10411937;28;20865;-53
2023/11/18 14:40:13;;;;;;;10.13;2.90;;;18.20;72.20;;;;;;10410973;28;20022;-53
2023/11/18 14:45:15;;;;;;;13.77;4.10;;;18.30;72.30;;;;;;10409915;28;20030;-51
2023/11/18 14:50:20;;;;;;;18.40;4.60;;;18.30;72.50;;;;;;10407866;28;20450;-53
2023/11/18 14:55:21;;;;;;;11.93;4.00;;;18.30;72.90;;;;;;10411179;28;20120;-51
2023/11/18 15:00:24;;;;;;;16.67;4.60;;;18.10;73.00;;;;;;10410165;28;20041;-50
2023/11/18 15:05:26;;;;;;;14.30;3.85;;;17.80;73.40;;;;;;10405394;28;20553;-53
2023/11/18 15:10:28;;;;;;;24.15;4.95;;;17.60;74.30;;;;;;10410106;28;20044;-50
2023/11/18 15:15:31;;;;;;;23.95;4.50;;;17.60;74.50;;;;;;10410343;28;20018;-51
2023/11/18 15:20:34;;;;;;;19.02;4.18;;;17.60;74.80;;;;;;10409362;28;20516;-52
2023/11/18 15:25:35;;;;;;;17.20;4.47;;;17.60;74.60;;;;;;10410654;28;20025;-53
2023/11/18 15:30:37;;;;;;;15.38;4.38;;;17.50;74.70;;;;;;10415416;28;20037;-53
2023/11/18 15:35:37;;;;;;;24.23;5.15;;;17.50;74.80;;;;;;10409402;28;20037;-54
2023/11/18 15:40:38;;;;;;;20.45;3.95;;;17.60;75.00;;;;;;10409117;28;20603;-52
2023/11/18 15:45:39;;;;;;;16.40;3.85;;;17.60;74.30;;;;;;10409088;28;20034;-52
2023/11/18 15:50:41;;;;;;;16.33;3.42;;;17.50;74.20;;;;;;10409445;28;20394;-50
2023/11/18 15:55:44;;;;;;;18.27;4.25;;;17.50;74.10;;;;;;10407302;28;20053;-53
2023/11/18 16:00:46;;;;;;;26.02;3.80;;;17.60;73.80;;;;;;10408378;28;20032;-51
2023/11/18 16:05:46;;;;;;;14.13;3.03;;;17.60;73.20;;;;;;10407633;28;20623;-51
2023/11/18 16:10:47;;;;;;;13.95;3.30;;;17.70;73.40;;;;;;10407407;28;20094;-51
2023/11/18 16:15:48;;;;;;;9.52;3.15;;;17.90;72.90;;;;;;10407610;28;20037;-52
2023/11/18 16:20:48;;;;;;;16.27;5.07;;;18.10;72.40;;;;;;10407593;28;20456;-52
2023/11/18 16:25:49;;;;;;;10.55;3.70;;;18.10;73.40;;;;;;10407233;28;20026;-51
2023/11/18 16:30:50;;;;;;;11.65;3.75;;;18.20;73.50;;;;;;10440683;28;20080;-52
2023/11/18 16:35:52;;;;;;;14.00;4.40;;;18.30;74.60;;;;;;10407615;28;20418;-53
2023/11/18 16:40:53;;;;;;;9.95;3.53;;;18.20;75.70;;;;;;10406342;28;20534;-55
2023/11/18 16:45:54;;;;;;;13.45;3.65;;;18.20;75.30;;;;;;10407140;28;20083;-53
2023/11/18 16:50:55;;;;;;;10.90;3.90;;;18.30;75.10;;;;;;10396296;28;20027;-51
2023/11/18 16:55:55;;;;;;;11.40;7.70;;;18.30;76.60;;;;;;10408170;28;20048;-50
2023/11/18 17:00:56;;;;;;;20.45;11.68;;;18.30;78.00;;;;;;10404683;28;20036;-54
2023/11/18 17:05:57;;;;;;;15.05;9.73;;;18.30;79.50;;;;;;10407187;28;20037;-51
2023/11/18 17:10:58;;;;;;;14.00;9.65;;;18.60;77.20;;;;;;10412166;28;20436;-50
2023/11/18 17:15:59;;;;;;;13.43;9.25;;;18.50;77.90;;;;;;10407751;28;20087;-52
2023/11/18 17:21:00;;;;;;;15.68;10.85;;;18.30;77.30;;;;;;10410514;28;20091;-50
2023/11/18 17:26:00;;;;;;;11.48;10.27;;;18.20;77.20;;;;;;10412853;28;20029;-53
2023/11/18 17:31:03;;;;;;;14.07;10.70;;;18.20;77.60;;;;;;10412071;28;20049;-51
2023/11/18 17:36:04;;;;;;;18.92;9.68;;;18.10;76.70;;;;;;10410351;28;20037;-50
2023/11/18 17:41:06;;;;;;;62.20;31.02;;;18.00;76.50;;;;;;10409286;28;20120;-53
2023/11/18 17:46:10;;;;;;;53.58;27.67;;;17.80;76.20;;;;;;10413669;28;20037;-54
2023/11/18 17:51:10;;;;;;;47.53;27.42;;;17.60;76.40;;;;;;10413774;28;20188;-54
2023/11/18 17:56:13;;;;;;;49.65;26.92;;;17.40;76.90;;;;;;10413389;28;20112;-53
2023/11/18 18:01:14;;;;;;;40.95;22.70;;;17.30;77.10;;;;;;10403347;28;20028;-53
2023/11/18 18:06:15;;;;;;;41.90;23.38;;;17.20;77.10;;;;;;10412540;28;20033;-56
2023/11/18 18:11:17;;;;;;;41.65;22.58;;;17.20;77.00;;;;;;10412779;28;20091;-54
2023/11/18 18:16:17;;;;;;;38.72;20.77;;;17.20;76.70;;;;;;10412506;28;20037;-51
2023/11/18 18:21:18;;;;;;;35.88;18.98;;;17.30;76.20;;;;;;10412783;28;20474;-52
2023/11/18 18:26:20;;;;;;;29.85;19.80;;;17.40;76.50;;;;;;10412154;28;20035;-53
2023/11/18 18:31:20;;;;;;;34.67;19.55;;;17.50;76.00;;;;;;10413137;28;20039;-52
2023/11/18 18:36:21;;;;;;;26.70;17.58;;;17.50;75.80;;;;;;10410165;28;20571;-52
2023/11/18 18:41:22;;;;;;;35.72;18.55;;;17.60;75.60;;;;;;10411974;28;20025;-52
2023/11/18 18:46:22;;;;;;;29.55;16.73;;;17.60;76.30;;;;;;10411148;28;20465;-54
2023/11/18 18:51:23;;;;;;;31.70;17.67;;;17.60;76.20;;;;;;10393706;28;20036;-55
2023/11/18 18:56:24;;;;;;;29.13;15.07;;;17.60;75.40;;;;;;10410600;28;20041;-54
2023/11/18 19:01:26;;;;;;;30.05;16.50;;;17.70;75.10;;;;;;10418050;28;20035;-53
2023/11/18 19:06:27;;;;;;;21.33;14.65;;;17.60;76.00;;;;;;10433961;28;20408;-54
2023/11/18 19:11:28;;;;;;;25.52;14.82;;;17.60;76.20;;;;;;10421511;28;20048;-50
2023/11/18 19:16:29;;;;;;;25.80;14.68;;;17.60;76.10;;;;;;10408338;28;20025;-50
2023/11/18 19:21:30;;;;;;;25.92;14.68;;;17.50;76.20;;;;;;10409582;28;20361;-53
2023/11/18 19:26:35;;;;;;;22.77;13.77;;;17.60;76.20;;;;;;10409799;28;20118;-56
2023/11/18 19:31:36;;;;;;;23.75;12.55;;;17.60;76.10;;;;;;10423134;28;20045;-55
2023/11/18 19:36:37;;;;;;;24.48;13.93;;;17.70;75.40;;;;;;10409026;28;20045;-54
2023/11/18 19:41:37;;;;;;;21.63;12.05;;;17.60;75.50;;;;;;10409918;28;20033;-56
2023/11/18 19:46:38;;;;;;;24.30;14.10;;;17.60;76.30;;;;;;10409645;28;20033;-55
2023/11/18 19:51:39;;;;;;;22.10;13.20;;;17.50;76.30;;;;;;10409723;28;20029;-55
2023/11/18 19:56:40;;;;;;;20.30;11.52;;;17.60;76.20;;;;;;10409278;28;20365;-53
2023/11/18 20:01:41;;;;;;;18.65;11.85;;;17.50;75.80;;;;;;10409336;28;20021;-52
2023/11/18 20:06:41;;;;;;;17.02;11.48;;;17.60;75.80;;;;;;10408299;28;20057;-53
2023/11/18 20:11:52;;;;;;;16.55;10.63;;;17.60;75.90;;;;;;10408590;28;20029;-54
2023/11/18 20:16:54;;;;;;;14.90;10.30;;;17.50;76.20;;;;;;10408561;28;20033;-54
2023/11/18 20:21:55;;;;;;;17.73;10.02;;;17.50;76.40;;;;;;10409122;28;20057;-54
2023/11/18 20:26:55;;;;;;;16.77;10.05;;;17.50;76.40;;;;;;10407818;28;20060;-54
2023/11/18 20:31:56;;;;;;;19.77;11.60;;;17.50;76.70;;;;;;10409032;28;20072;-54
2023/11/18 20:36:57;;;;;;;17.17;9.52;;;17.40;76.70;;;;;;10408288;28;20032;-54
2023/11/18 20:41:58;;;;;;;13.65;9.05;;;17.40;76.80;;;;;;10408662;28;20614;-56
2023/11/18 20:46:59;;;;;;;20.33;8.77;;;17.40;76.70;;;;;;10408215;28;20030;-55
2023/11/18 20:51:59;;;;;;;13.65;8.43;;;17.30;76.70;;;;;;10406713;28;20068;-56
2023/11/18 20:57:00;;;;;;;14.73;10.40;;;17.30;76.10;;;;;;10406630;28;20041;-54
2023/11/18 21:02:01;;;;;;;13.07;9.15;;;17.30;76.40;;;;;;10405152;28;20029;-52
2023/11/18 21:07:03;;;;;;;16.10;8.25;;;17.20;76.10;;;;;;10411766;28;20049;-51
2023/11/18 21:12:06;;;;;;;13.68;7.95;;;17.00;76.10;;;;;;10407576;28;20036;-53
2023/11/18 21:17:11;;;;;;;16.48;8.27;;;17.00;76.20;;;;;;10405667;28;20037;-52
2023/11/18 21:22:13;;;;;;;13.77;7.68;;;17.00;76.30;;;;;;10407325;28;20029;-53
2023/11/18 21:27:14;;;;;;;15.00;8.15;;;16.90;76.30;;;;;;10407215;28;20524;-50
2023/11/18 21:32:15;;;;;;;11.38;7.50;;;16.90;76.50;;;;;;10407126;28;20068;-51
2023/11/18 21:37:15;;;;;;;12.07;6.88;;;16.90;76.50;;;;;;10408104;28;20034;-52
2023/11/18 21:42:17;;;;;;;14.45;7.13;;;16.80;76.60;;;;;;10414495;28;20040;-52
2023/11/18 21:47:18;;;;;;;12.00;7.32;;;16.70;76.50;;;;;;10413606;28;20040;-52
2023/11/18 21:52:18;;;;;;;9.70;6.43;;;16.70;76.70;;;;;;10414155;28;20118;-54
2023/11/18 21:57:20;;;;;;;12.35;6.90;;;16.70;76.70;;;;;;10413440;28;20480;-55
2023/11/18 22:02:22;;;;;;;10.52;6.22;;;16.70;76.70;;;;;;10424258;28;20040;-54
2023/11/18 22:07:22;;;;;;;10.48;6.93;;;16.60;76.70;;;;;;10414718;28;20639;-54
2023/11/18 22:12:23;;;;;;;11.85;7.50;;;16.60;76.70;;;;;;10413165;28;20034;-53
2023/11/18 22:17:24;;;;;;;9.50;5.65;;;16.60;76.80;;;;;;10412811;28;20029;-51
2023/11/18 22:22:25;;;;;;;8.90;5.75;;;16.60;76.80;;;;;;10413083;28;20428;-53
2023/11/18 22:27:26;;;;;;;8.93;6.93;;;16.60;76.90;;;;;;10411378;28;20026;-52
2023/11/18 22:32:27;;;;;;;9.70;5.90;;;16.50;76.80;;;;;;10413345;28;20666;-52
2023/11/18 22:37:27;;;;;;;8.95;6.43;;;16.50;76.80;;;;;;10410711;28;20637;-52
2023/11/18 22:42:32;;;;;;;8.98;6.43;;;16.50;76.80;;;;;;10408886;28;20033;-51
2023/11/18 22:47:33;;;;;;;8.55;5.57;;;16.50;76.80;;;;;;10409813;28;20029;-53
2023/11/18 22:52:34;;;;;;;7.88;5.22;;;16.50;76.90;;;;;;10410615;28;20037;-52
2023/11/18 22:57:35;;;;;;;12.85;6.00;;;16.50;76.90;;;;;;10411193;28;20080;-54
2023/11/18 23:02:36;;;;;;;10.07;6.15;;;16.50;76.90;;;;;;10411309;28;20441;-53
2023/11/18 23:07:36;;;;;;;9.63;5.95;;;16.40;77.50;;;;;;10410624;28;20025;-53
2023/11/18 23:12:37;;;;;;;8.05;5.07;;;16.40;76.90;;;;;;10410746;28;20564;-50
2023/11/18 23:17:38;;;;;;;12.40;5.70;;;16.40;77.50;;;;;;10410449;28;20425;-52
2023/11/18 23:22:38;;;;;;;8.75;6.22;;;16.40;77.00;;;;;;10410622;28;20022;-49
2023/11/18 23:27:40;;;;;;;9.75;5.85;;;16.40;77.00;;;;;;10409950;28;20034;-53
2023/11/18 23:32:42;;;;;;;13.35;5.88;;;16.30;76.90;;;;;;10410076;28;20049;-53
2023/11/18 23:37:43;;;;;;;7.70;4.38;;;16.30;77.00;;;;;;10409859;28;20372;-52
2023/11/18 23:42:43;;;;;;;9.93;6.13;;;16.30;76.90;;;;;;10410517;28;20082;-52
2023/11/18 23:47:45;;;;;;;6.65;4.68;;;16.30;77.00;;;;;;10409786;28;20033;-54
2023/11/18 23:52:46;;;;;;;10.00;5.30;;;16.30;77.00;;;;;;10410370;28;20034;-51
2023/11/18 23:57:47;;;;;;;7.70;4.93;;;16.30;77.00;;;;;;10409378;28;20042;-52
